Fernwood, Mississippi
Current Conditions -  °F | °C
As of 12:53 AM on Thursday 23 Oct 2014 (Local Time) from KMCB Reporting Station
Clear Clear  
Wind Chill: 56°   Ceiling: Unl
Heat Index: 56°   Visibility: 10mi
Dew Point: 48°   Wind: 3mph
Humidity: 75%   Direction: 40°NE
Pressure: 30.1"   Gusts: NA
Location:  31.19°N, 90.45°W
Report Text: KMCB 230553Z AUTO 04003KT 10SM CLR 13/09 A3010 RMK AO2 SLP190 T01330089 10206 20133 402610133 58001
Loading
Personal Weather Stations






























Interactive Weather Map
Tropical Storm Tracking
New forecast layout! Learn more

10-Day Weather Forecast

Advertisements
Track Severe Weather on mobile